createdAt,value
2023-04-14T00:01:59.784Z,0.00
2023-04-14T00:04:28.404Z,0.00
2023-04-14T00:06:58.773Z,0.00
2023-04-14T00:09:27.329Z,0.00
2023-04-14T00:11:57.622Z,0.00
2023-04-14T00:14:26.030Z,0.00
2023-04-14T00:16:54.596Z,0.10
2023-04-14T00:19:23.096Z,0.00
2023-04-14T00:21:51.603Z,0.00
2023-04-14T00:24:20.048Z,0.07
2023-04-14T00:26:48.462Z,0.00
2023-04-14T00:29:18.321Z,0.00
2023-04-14T00:31:46.641Z,0.10
2023-04-14T00:34:15.073Z,0.00
2023-04-14T00:36:43.600Z,0.00
2023-04-14T00:39:11.988Z,0.00
2023-04-14T00:41:40.435Z,0.00
2023-04-14T00:44:08.815Z,0.00
2023-04-14T00:46:38.826Z,0.10
2023-04-14T00:49:07.886Z,0.10
2023-04-14T00:51:37.264Z,0.10
2023-04-14T00:54:09.013Z,0.00
2023-04-14T00:56:37.604Z,0.00
2023-04-14T00:59:08.324Z,0.03
2023-04-14T01:01:38.801Z,0.00
2023-04-14T01:04:08.032Z,0.00
2023-04-14T01:06:37.804Z,0.10
2023-04-14T01:09:06.600Z,0.00
2023-04-14T01:11:46.277Z,0.00
2023-04-14T01:14:24.348Z,0.10
2023-04-14T01:16:59.146Z,0.00
2023-04-14T01:19:43.914Z,0.00
2023-04-14T01:22:16.107Z,0.00
2023-04-14T01:25:07.651Z,0.00
2023-04-14T01:27:45.103Z,0.00
2023-04-14T01:30:46.877Z,0.00
2023-04-14T01:33:22.099Z,0.00
2023-04-14T01:35:58.300Z,0.03
2023-04-14T01:38:31.059Z,0.00
2023-04-14T01:41:04.235Z,0.00
2023-04-14T01:43:35.296Z,0.00
2023-04-14T01:46:08.995Z,0.00
2023-04-14T01:48:39.364Z,0.00
2023-04-14T01:51:09.302Z,0.00
2023-04-14T01:53:41.588Z,0.00
2023-04-14T01:56:13.247Z,0.00
2023-04-14T01:58:43.473Z,0.00
2023-04-14T02:01:13.627Z,0.00
2023-04-14T02:03:45.225Z,0.10
2023-04-14T02:06:14.816Z,0.00
2023-04-14T02:08:43.510Z,0.00
2023-04-14T02:11:15.156Z,0.00
2023-04-14T02:13:45.607Z,0.00
2023-04-14T02:16:15.463Z,0.10
2023-04-14T02:18:46.783Z,0.00
2023-04-14T02:21:17.659Z,0.00
2023-04-14T02:23:46.766Z,0.00
2023-04-14T02:26:17.376Z,0.00
2023-04-14T02:28:51.866Z,0.00
2023-04-14T02:31:23.905Z,0.00
2023-04-14T02:33:56.630Z,0.00
2023-04-14T02:36:32.514Z,0.00
2023-04-14T02:39:05.927Z,0.20
2023-04-14T02:41:34.828Z,0.10
2023-04-14T02:44:08.445Z,0.10
2023-04-14T02:46:50.431Z,0.00
2023-04-14T02:49:22.578Z,0.00
2023-04-14T02:51:53.442Z,0.10
2023-04-14T02:54:23.349Z,0.00
2023-04-14T02:56:52.797Z,0.10
2023-04-14T02:59:27.715Z,0.10
2023-04-14T03:02:04.770Z,0.10
2023-04-14T03:04:39.764Z,0.00
2023-04-14T03:07:15.956Z,0.10
2023-04-14T03:09:44.866Z,0.07
2023-04-14T03:12:16.814Z,0.10
2023-04-14T03:14:45.882Z,0.20
2023-04-14T03:17:17.720Z,0.40
2023-04-14T03:19:49.342Z,0.60
2023-04-14T03:22:19.325Z,0.60
2023-04-14T03:24:48.415Z,0.50
2023-04-14T03:27:26.377Z,0.27
2023-04-14T03:29:59.891Z,0.10
2023-04-14T03:32:34.380Z,0.10
2023-04-14T03:35:05.036Z,0.10
2023-04-14T03:37:37.554Z,0.00
2023-04-14T03:40:09.304Z,0.10
2023-04-14T03:42:41.688Z,0.00
2023-04-14T03:45:11.701Z,0.10
2023-04-14T03:47:42.084Z,0.00
2023-04-14T03:50:15.646Z,0.10
2023-04-14T03:52:45.183Z,0.10
2023-04-14T03:55:15.176Z,0.00
2023-04-14T03:57:45.798Z,0.00
2023-04-14T04:00:16.493Z,0.00
2023-04-14T04:02:48.675Z,0.00
2023-04-14T04:05:19.457Z,0.10
2023-04-14T04:07:48.299Z,0.00
2023-04-14T04:10:17.662Z,0.00
2023-04-14T04:12:48.990Z,0.00
2023-04-14T04:15:18.587Z,0.20
2023-04-14T04:17:50.504Z,0.00
2023-04-14T04:20:23.380Z,0.00
2023-04-14T04:22:54.104Z,0.10
2023-04-14T04:25:22.560Z,0.10
2023-04-14T04:28:01.235Z,0.10
2023-04-14T04:30:32.422Z,0.10
2023-04-14T04:33:03.881Z,0.03
2023-04-14T04:35:35.878Z,0.20
2023-04-14T04:38:06.994Z,0.30
2023-04-14T04:40:38.884Z,0.10
2023-04-14T04:43:13.463Z,0.10
2023-04-14T04:46:00.954Z,0.10
2023-04-14T04:48:30.695Z,0.00
2023-04-14T04:51:00.438Z,0.00
2023-04-14T04:53:28.881Z,0.00
2023-04-14T04:55:57.501Z,0.20
2023-04-14T04:58:25.947Z,0.20
2023-04-14T05:00:54.868Z,0.20
2023-04-14T05:03:23.392Z,0.00
2023-04-14T05:05:51.745Z,0.10
2023-04-14T05:08:21.777Z,0.10
2023-04-14T05:10:50.219Z,0.10
2023-04-14T05:13:18.657Z,0.77
2023-04-14T05:15:47.195Z,0.20
2023-04-14T05:18:15.675Z,0.10
2023-04-14T05:20:44.075Z,0.10
2023-04-14T05:23:13.539Z,0.10
2023-04-14T05:25:43.402Z,0.20
2023-04-14T05:28:14.068Z,0.10
2023-04-14T05:30:42.474Z,0.10
2023-04-14T05:33:11.879Z,0.10
2023-04-14T05:35:40.619Z,0.10
2023-04-14T05:38:09.142Z,0.10
2023-04-14T05:40:37.698Z,0.10
2023-04-14T05:43:07.703Z,0.10
2023-04-14T05:45:36.220Z,0.00
2023-04-14T05:48:05.049Z,0.10
2023-04-14T05:50:35.037Z,0.47
2023-04-14T05:53:03.380Z,1.43
2023-04-14T05:55:32.575Z,0.60
2023-04-14T05:58:01.019Z,0.10
2023-04-14T06:00:31.227Z,0.30
2023-04-14T06:02:59.848Z,0.10
2023-04-14T06:05:28.563Z,0.10
2023-04-14T06:07:57.186Z,0.20
2023-04-14T06:10:25.537Z,0.20
2023-04-14T06:12:53.856Z,0.10
2023-04-14T06:15:22.240Z,0.27
2023-04-14T06:17:52.373Z,0.10
2023-04-14T06:20:22.044Z,0.13
2023-04-14T06:22:50.620Z,0.20
2023-04-14T06:25:19.063Z,0.20
2023-04-14T06:27:47.379Z,0.40
2023-04-14T06:30:17.073Z,0.60
2023-04-14T06:32:45.729Z,1.80
2023-04-14T06:35:29.515Z,2.47
2023-04-14T06:38:00.782Z,3.27
2023-04-14T06:40:29.233Z,4.57
2023-04-14T06:42:57.728Z,4.00
2023-04-14T06:45:26.370Z,4.57
2023-04-14T06:47:55.003Z,3.63
2023-04-14T06:50:24.796Z,4.03
2023-04-14T06:52:53.130Z,2.80
2023-04-14T06:55:21.884Z,2.40
2023-04-14T06:57:50.387Z,2.83
2023-04-14T07:00:19.723Z,1.40
2023-04-14T07:02:48.329Z,1.50
2023-04-14T07:05:17.429Z,1.00
2023-04-14T07:07:47.206Z,0.60
2023-04-14T07:10:15.724Z,0.70
2023-04-14T07:12:44.092Z,0.57
2023-04-14T07:15:14.411Z,0.50
2023-04-14T07:17:43.855Z,0.40
2023-04-14T07:20:12.746Z,0.40
2023-04-14T07:22:41.177Z,0.20
2023-04-14T07:25:11.539Z,0.27
2023-04-14T07:27:47.164Z,0.30
2023-04-14T07:30:21.730Z,0.20
2023-04-14T07:32:50.074Z,0.47
2023-04-14T07:35:19.749Z,0.30
2023-04-14T07:37:48.100Z,0.30
2023-04-14T07:40:17.889Z,0.30
2023-04-14T07:42:46.520Z,0.23
2023-04-14T07:45:14.868Z,0.30
2023-04-14T07:47:43.312Z,0.20
2023-04-14T07:50:12.117Z,0.30
2023-04-14T07:52:40.615Z,0.30
2023-04-14T07:55:09.167Z,0.30
2023-04-14T07:57:39.165Z,0.37
2023-04-14T08:00:09.808Z,0.40
2023-04-14T08:02:40.970Z,0.20
2023-04-14T08:05:09.608Z,0.40
2023-04-14T08:07:38.804Z,0.33
2023-04-14T08:10:08.034Z,0.30
2023-04-14T08:12:36.650Z,0.20
2023-04-14T08:15:07.088Z,0.40
2023-04-14T08:17:35.515Z,0.20
2023-04-14T08:20:04.046Z,0.40
2023-04-14T08:22:32.478Z,0.33
2023-04-14T08:25:01.002Z,0.33
2023-04-14T08:27:29.410Z,0.47
2023-04-14T08:29:57.837Z,0.50
2023-04-14T08:32:28.591Z,0.43
2023-04-14T08:35:39.190Z,0.70
2023-04-14T08:37:45.736Z,0.37
2023-04-14T08:40:17.012Z,0.57
2023-04-14T08:42:46.080Z,0.40
2023-04-14T08:45:14.976Z,0.40
2023-04-14T08:47:47.312Z,0.57
2023-04-14T08:50:19.792Z,0.40
2023-04-14T08:52:50.668Z,0.57
2023-04-14T08:55:20.673Z,0.70
2023-04-14T08:57:50.443Z,0.60
2023-04-14T09:00:20.000Z,0.37
2023-04-14T09:02:50.653Z,0.30
2023-04-14T09:05:20.225Z,0.30
2023-04-14T09:07:49.257Z,0.30
2023-04-14T09:10:18.713Z,0.30
2023-04-14T09:12:47.305Z,0.20
2023-04-14T09:15:17.061Z,0.30
2023-04-14T09:17:45.753Z,0.40
2023-04-14T09:20:34.645Z,0.20
2023-04-14T09:23:05.044Z,0.20
2023-04-14T09:25:34.454Z,0.30
2023-04-14T09:28:02.948Z,0.40
2023-04-14T09:30:32.536Z,0.50
2023-04-14T09:33:01.261Z,0.60
2023-04-14T09:35:46.598Z,0.60
2023-04-14T09:38:15.320Z,0.50
2023-04-14T09:40:45.165Z,0.57
2023-04-14T09:43:27.096Z,0.47
2023-04-14T09:45:56.747Z,0.30
2023-04-14T09:48:26.100Z,0.30
2023-04-14T09:51:00.588Z,0.33
2023-04-14T09:53:31.501Z,0.40
2023-04-14T09:56:02.812Z,0.40
2023-04-14T09:58:32.823Z,0.43
2023-04-14T10:01:01.399Z,0.30
2023-04-14T10:03:39.584Z,0.50
2023-04-14T10:06:10.951Z,0.30
2023-04-14T10:08:41.202Z,0.40
2023-04-14T10:11:20.145Z,0.50
2023-04-14T10:13:49.795Z,0.37
2023-04-14T10:16:18.511Z,0.97
2023-04-14T10:18:47.853Z,0.70
2023-04-14T10:21:18.210Z,0.50
2023-04-14T10:23:47.307Z,0.80
2023-04-14T10:26:16.062Z,0.47
2023-04-14T10:28:46.844Z,0.80
2023-04-14T10:31:20.346Z,0.50
2023-04-14T10:33:48.933Z,0.43
2023-04-14T10:36:26.739Z,0.60
2023-04-14T10:39:02.205Z,0.60
2023-04-14T10:41:46.071Z,0.63
2023-04-14T10:44:27.484Z,0.47
2023-04-14T10:46:56.936Z,0.43
2023-04-14T10:49:30.469Z,0.60
2023-04-14T10:52:02.657Z,0.63
2023-04-14T10:54:50.187Z,0.30
2023-04-14T10:57:20.196Z,0.50
2023-04-14T10:59:49.416Z,0.30
2023-04-14T11:02:30.495Z,0.57
2023-04-14T11:05:00.595Z,0.40
2023-04-14T11:07:32.822Z,0.73
2023-04-14T11:10:22.016Z,0.60
2023-04-14T11:12:57.520Z,0.60
2023-04-14T11:15:26.087Z,0.37
2023-04-14T11:17:55.221Z,0.30
2023-04-14T11:20:24.376Z,0.60
2023-04-14T11:22:54.905Z,0.40
2023-04-14T11:25:24.776Z,0.30
2023-04-14T11:27:54.093Z,0.30
2023-04-14T11:30:23.128Z,0.33
2023-04-14T11:32:53.722Z,0.53
2023-04-14T11:35:25.537Z,0.50
2023-04-14T11:37:56.301Z,0.57
2023-04-14T11:40:26.607Z,0.47
2023-04-14T11:42:56.578Z,0.33
2023-04-14T11:45:29.182Z,0.30
2023-04-14T11:47:59.517Z,0.40
2023-04-14T11:50:29.044Z,0.40
2023-04-14T11:52:59.933Z,0.40
2023-04-14T11:55:29.063Z,0.30
2023-04-14T11:57:58.246Z,0.30
2023-04-14T12:00:28.215Z,0.40
2023-04-14T12:02:57.937Z,0.50
2023-04-14T12:05:31.267Z,0.37
2023-04-14T12:08:03.270Z,0.47
2023-04-14T12:10:32.250Z,0.50
2023-04-14T12:13:02.152Z,0.30
2023-04-14T12:15:31.677Z,0.30
2023-04-14T12:18:00.666Z,0.60
2023-04-14T12:20:30.486Z,0.33
2023-04-14T12:23:04.660Z,0.40
2023-04-14T12:25:34.169Z,0.30
2023-04-14T12:28:06.547Z,0.40
2023-04-14T12:30:36.020Z,0.20
2023-04-14T12:33:11.526Z,0.20
2023-04-14T12:35:40.763Z,0.20
2023-04-14T12:38:14.810Z,0.17
2023-04-14T12:40:46.126Z,0.20
2023-04-14T12:43:15.249Z,0.20
2023-04-14T12:45:45.112Z,0.33
2023-04-14T12:48:14.454Z,0.30
2023-04-14T12:50:42.921Z,0.30
2023-04-14T12:53:29.637Z,0.40
2023-04-14T12:56:08.951Z,0.40
2023-04-14T12:58:38.060Z,0.30
2023-04-14T13:01:08.000Z,0.50
2023-04-14T13:03:46.479Z,0.47
2023-04-14T13:06:18.097Z,0.57
2023-04-14T13:08:49.341Z,0.30
2023-04-14T13:11:19.107Z,0.53
2023-04-14T13:13:48.565Z,0.47
2023-04-14T13:16:19.397Z,0.43
2023-04-14T13:18:49.459Z,0.50
2023-04-14T13:21:18.019Z,0.40
2023-04-14T13:23:48.113Z,0.40
2023-04-14T13:26:16.546Z,0.50
2023-04-14T13:28:45.216Z,0.50
2023-04-14T13:31:17.479Z,0.33
2023-04-14T13:33:46.246Z,0.50
2023-04-14T13:36:14.692Z,0.40
2023-04-14T13:38:43.257Z,0.40
2023-04-14T13:41:15.419Z,0.30
2023-04-14T13:43:44.054Z,0.30
2023-04-14T13:46:12.886Z,0.30
2023-04-14T13:48:41.696Z,0.50
2023-04-14T13:51:10.065Z,0.30
2023-04-14T13:53:38.583Z,0.33
2023-04-14T13:56:07.277Z,0.50
2023-04-14T13:58:38.579Z,0.20
2023-04-14T14:01:11.423Z,0.10
2023-04-14T14:03:41.375Z,0.23
2023-04-14T14:06:10.084Z,0.30
2023-04-14T14:08:38.587Z,0.30
2023-04-14T14:11:07.264Z,0.37
2023-04-14T14:13:39.852Z,0.30
2023-04-14T14:16:10.080Z,0.30
2023-04-14T14:18:38.645Z,0.33
2023-04-14T14:21:07.385Z,0.40
2023-04-14T14:23:35.824Z,0.40
2023-04-14T14:26:04.268Z,0.40
2023-04-14T14:28:32.772Z,0.30
2023-04-14T14:31:03.849Z,0.77
2023-04-14T14:33:34.016Z,0.70
2023-04-14T14:36:02.854Z,0.50
2023-04-14T14:38:31.485Z,0.60
2023-04-14T14:40:59.853Z,0.43
2023-04-14T14:43:30.286Z,0.80
2023-04-14T14:45:58.772Z,0.70
2023-04-14T14:48:28.791Z,0.40
2023-04-14T14:50:57.157Z,0.60
2023-04-14T14:53:25.545Z,0.77
2023-04-14T14:55:53.899Z,0.50
2023-04-14T14:58:22.695Z,0.50
2023-04-14T15:00:51.239Z,0.50
2023-04-14T15:03:20.607Z,0.53
2023-04-14T15:05:52.881Z,0.50
2023-04-14T15:08:21.623Z,0.50
2023-04-14T15:10:52.251Z,0.80
2023-04-14T15:13:21.150Z,0.50
2023-04-14T15:15:49.503Z,0.80
2023-04-14T15:18:17.978Z,0.80
2023-04-14T15:20:46.334Z,0.50
2023-04-14T15:23:16.239Z,0.57
2023-04-14T15:25:44.662Z,0.50
2023-04-14T15:28:14.459Z,0.73
2023-04-14T15:30:43.014Z,0.80
2023-04-14T15:33:11.478Z,0.77
2023-04-14T15:35:40.569Z,0.80
2023-04-14T15:38:08.899Z,0.70
2023-04-14T15:40:39.945Z,1.10
2023-04-14T15:43:08.552Z,0.80
2023-04-14T15:45:37.003Z,0.80
2023-04-14T15:48:05.642Z,0.97
2023-04-14T15:50:34.066Z,1.13
2023-04-14T15:53:13.384Z,0.97
2023-04-14T15:55:44.519Z,0.90
2023-04-14T15:58:12.944Z,0.60
2023-04-14T16:00:41.652Z,0.60
2023-04-14T16:03:12.094Z,0.93
2023-04-14T16:05:40.949Z,0.87
2023-04-14T16:08:09.531Z,0.70
2023-04-14T16:10:40.611Z,0.80
2023-04-14T16:13:10.658Z,0.90
2023-04-14T16:15:39.057Z,0.93
2023-04-14T16:18:07.523Z,0.70
2023-04-14T16:20:35.983Z,0.80
2023-04-14T16:23:04.327Z,0.80
2023-04-14T16:25:32.766Z,0.90
2023-04-14T16:28:01.166Z,0.70
2023-04-14T16:30:30.924Z,0.70
2023-04-14T16:32:59.338Z,0.63
2023-04-14T16:35:27.709Z,0.80
2023-04-14T16:37:56.193Z,0.60
2023-04-14T16:40:24.751Z,0.73
2023-04-14T16:42:53.218Z,0.60
2023-04-14T16:45:21.572Z,0.60
2023-04-14T16:47:51.467Z,0.93
2023-04-14T16:50:19.898Z,1.00
2023-04-14T16:52:48.290Z,1.03
2023-04-14T16:55:17.149Z,0.60
2023-04-14T16:57:45.591Z,0.80
2023-04-14T17:00:14.911Z,0.70
2023-04-14T17:02:43.575Z,0.73
2023-04-14T17:05:16.223Z,0.90
2023-04-14T17:07:45.121Z,1.27
2023-04-14T17:10:14.286Z,1.03
2023-04-14T17:12:43.373Z,1.13
2023-04-14T17:15:12.330Z,0.90
2023-04-14T17:17:40.735Z,1.00
2023-04-14T17:20:10.637Z,1.20
2023-04-14T17:22:40.534Z,1.00
2023-04-14T17:25:10.893Z,1.67
2023-04-14T17:27:39.397Z,1.10
2023-04-14T17:30:10.878Z,1.60
2023-04-14T17:32:41.842Z,1.30
2023-04-14T17:35:11.462Z,1.50
2023-04-14T17:37:41.753Z,1.03
2023-04-14T17:40:11.610Z,1.30
2023-04-14T17:42:40.053Z,1.50
2023-04-14T17:45:09.950Z,1.07
2023-04-14T17:47:39.994Z,1.10
2023-04-14T17:50:10.346Z,1.30
2023-04-14T17:52:40.478Z,1.10
2023-04-14T17:55:10.464Z,1.20
2023-04-14T17:57:39.348Z,1.53
2023-04-14T18:00:10.384Z,1.00
2023-04-14T18:02:41.909Z,0.70
2023-04-14T18:05:11.432Z,0.63
2023-04-14T18:07:43.363Z,0.70
2023-04-14T18:10:12.182Z,0.80
2023-04-14T18:12:41.507Z,0.93
2023-04-14T18:15:15.342Z,0.70
2023-04-14T18:17:43.923Z,0.83
2023-04-14T18:20:13.856Z,1.00
2023-04-14T18:22:43.776Z,0.70
2023-04-14T18:25:12.061Z,0.90
2023-04-14T18:30:12.924Z,1.10
2023-04-14T18:32:41.584Z,1.42
2023-04-14T18:35:10.573Z,0.90
2023-04-14T18:37:40.064Z,0.73
2023-04-14T18:40:10.960Z,1.03
2023-04-14T18:42:39.616Z,0.70
2023-04-14T18:45:09.119Z,0.70
2023-04-14T18:47:37.734Z,0.80
2023-04-14T18:50:07.651Z,0.80
2023-04-14T18:52:36.076Z,0.80
2023-04-14T18:55:05.136Z,0.63
2023-04-14T18:57:35.009Z,0.60
2023-04-14T19:00:07.169Z,0.70
2023-04-14T19:02:36.232Z,0.60
2023-04-14T19:05:04.980Z,0.40
2023-04-14T19:07:34.499Z,0.40
2023-04-14T19:10:05.078Z,0.67
2023-04-14T19:12:34.876Z,0.60
2023-04-14T19:15:03.736Z,0.60
2023-04-14T19:17:34.481Z,0.33
2023-04-14T19:20:03.018Z,0.47
2023-04-14T19:22:31.532Z,0.50
2023-04-14T19:24:59.992Z,0.50
2023-04-14T19:27:28.302Z,0.50
2023-04-14T19:29:58.263Z,0.70
2023-04-14T19:32:26.714Z,0.40
2023-04-14T19:34:55.148Z,0.70
2023-04-14T19:37:23.553Z,0.60
2023-04-14T19:39:51.967Z,0.50
2023-04-14T19:42:20.319Z,0.50
2023-04-14T19:44:48.735Z,0.60
2023-04-14T19:47:18.441Z,0.50
2023-04-14T19:49:47.013Z,0.50
2023-04-14T19:52:15.465Z,0.90
2023-04-14T19:54:44.604Z,0.80
2023-04-14T19:57:13.903Z,0.87
2023-04-14T19:59:42.619Z,1.00
2023-04-14T20:02:13.365Z,0.67
2023-04-14T20:04:45.136Z,1.10
2023-04-14T20:07:14.675Z,1.17
2023-04-14T20:09:46.708Z,0.67
2023-04-14T20:12:15.638Z,0.60
2023-04-14T20:14:45.151Z,0.63
2023-04-14T20:17:13.991Z,0.70
2023-04-14T20:19:44.669Z,0.43
2023-04-14T20:22:13.561Z,0.80
2023-04-14T20:24:41.994Z,0.50
2023-04-14T20:27:11.070Z,0.50
2023-04-14T20:29:39.380Z,0.60
2023-04-14T20:32:07.958Z,0.50
2023-04-14T20:34:36.342Z,0.80
2023-04-14T20:37:06.220Z,0.97
2023-04-14T20:39:34.691Z,0.47
2023-04-14T20:42:03.070Z,0.60
2023-04-14T20:44:31.721Z,0.80
2023-04-14T20:47:00.706Z,0.67
2023-04-14T20:49:29.664Z,0.30
2023-04-14T20:51:58.556Z,0.50
2023-04-14T20:54:28.882Z,0.40
2023-04-14T20:56:57.673Z,0.50
2023-04-14T20:59:26.374Z,0.40
2023-04-14T21:01:54.894Z,0.50
2023-04-14T21:04:24.302Z,0.60
2023-04-14T21:06:53.205Z,0.50
2023-04-14T21:09:25.138Z,0.50
2023-04-14T21:12:15.971Z,0.40
2023-04-14T21:15:29.090Z,0.50
2023-04-14T21:17:32.070Z,0.40
2023-04-14T21:20:00.486Z,0.60
2023-04-14T21:22:28.869Z,0.60
2023-04-14T21:24:57.177Z,0.40
2023-04-14T21:27:28.160Z,0.30
2023-04-14T21:29:56.618Z,0.47
2023-04-14T21:32:25.138Z,0.50
2023-04-14T21:34:53.592Z,0.60
2023-04-14T21:37:21.954Z,0.50
2023-04-14T21:39:50.443Z,0.30
2023-04-14T21:42:18.797Z,0.30
2023-04-14T21:44:49.394Z,0.20
2023-04-14T21:47:17.949Z,0.13
2023-04-14T21:49:46.315Z,0.23
2023-04-14T21:52:15.842Z,0.10
2023-04-14T21:54:46.274Z,0.30
2023-04-14T21:57:14.789Z,0.20
2023-04-14T21:59:43.182Z,0.10
2023-04-14T22:02:13.863Z,0.20
2023-04-14T22:04:42.491Z,0.50
2023-04-14T22:07:10.977Z,0.27
2023-04-14T22:09:39.498Z,0.23
2023-04-14T22:12:07.912Z,0.20
2023-04-14T22:14:37.175Z,0.30
2023-04-14T22:17:05.710Z,0.20
2023-04-14T22:19:35.896Z,0.43
2023-04-14T22:22:04.828Z,0.30
2023-04-14T22:24:33.644Z,0.30
2023-04-14T22:27:02.137Z,0.20
2023-04-14T22:29:30.480Z,0.30
2023-04-14T22:31:58.825Z,0.40
2023-04-14T22:34:27.294Z,0.50
2023-04-14T22:36:58.128Z,0.20
2023-04-14T22:39:26.626Z,0.30
2023-04-14T22:41:54.963Z,0.40
2023-04-14T22:44:23.461Z,0.30
2023-04-14T22:46:52.835Z,0.20
2023-04-14T22:49:21.564Z,0.40
2023-04-14T22:51:49.907Z,0.40
2023-04-14T22:54:19.704Z,0.50
2023-04-14T22:56:48.258Z,0.50
2023-04-14T22:59:16.947Z,0.47
2023-04-14T23:01:45.395Z,0.50
2023-04-14T23:04:13.972Z,0.37
2023-04-14T23:06:42.495Z,0.40
2023-04-14T23:09:10.973Z,0.60
2023-04-14T23:11:40.683Z,0.60
2023-04-14T23:14:09.024Z,0.90
2023-04-14T23:16:37.440Z,0.43
2023-04-14T23:19:06.060Z,0.60
2023-04-14T23:21:34.793Z,0.40
2023-04-14T23:24:03.225Z,0.30
2023-04-14T23:26:32.624Z,0.30
2023-04-14T23:29:02.778Z,0.30
2023-04-14T23:31:31.410Z,0.20
2023-04-14T23:33:59.871Z,0.20
2023-04-14T23:36:28.325Z,0.10
2023-04-14T23:38:56.642Z,0.20
2023-04-14T23:41:25.131Z,0.30
2023-04-14T23:43:53.490Z,0.40
2023-04-14T23:46:23.515Z,0.30
2023-04-14T23:48:53.307Z,0.20
2023-04-14T23:51:23.111Z,0.17
2023-04-14T23:53:51.836Z,0.40
2023-04-14T23:56:20.244Z,0.20
2023-04-14T23:58:48.730Z,0.20
